createdAt,value
2018-10-17T00:02:19.377Z,12.10
2018-10-17T00:04:46.763Z,12.10
2018-10-17T00:07:14.322Z,12.00
2018-10-17T00:09:41.600Z,12.00
2018-10-17T00:12:09.041Z,11.90
2018-10-17T00:14:36.486Z,11.90
2018-10-17T00:17:04.961Z,11.90
2018-10-17T00:19:32.335Z,11.90
2018-10-17T00:21:59.797Z,11.90
2018-10-17T00:24:27.244Z,11.80
2018-10-17T00:26:54.619Z,11.80
2018-10-17T00:29:22.071Z,11.70
2018-10-17T00:31:49.463Z,11.80
2018-10-17T00:34:16.982Z,11.80
2018-10-17T00:36:44.396Z,11.80
2018-10-17T00:39:11.768Z,11.80
2018-10-17T00:41:39.599Z,11.80
2018-10-17T00:44:07.058Z,11.70
2018-10-17T00:46:34.462Z,11.60
2018-10-17T00:49:01.953Z,11.60
2018-10-17T00:51:29.390Z,11.60
2018-10-17T00:53:56.800Z,11.50
2018-10-17T00:56:24.165Z,11.50
2018-10-17T00:59:01.349Z,11.50
2018-10-17T01:01:28.766Z,11.60
2018-10-17T01:03:56.178Z,11.60
2018-10-17T01:06:23.641Z,11.60
2018-10-17T01:08:51.064Z,11.60
2018-10-17T01:11:18.587Z,11.50
2018-10-17T01:13:46.021Z,11.50
2018-10-17T01:16:13.476Z,11.50
2018-10-17T01:18:40.869Z,11.50
2018-10-17T01:21:08.321Z,11.50
2018-10-17T01:23:35.757Z,11.50
2018-10-17T01:26:03.224Z,11.50
2018-10-17T01:28:30.651Z,11.50
2018-10-17T01:30:58.157Z,11.50
2018-10-17T01:33:25.573Z,11.50
2018-10-17T01:35:52.957Z,11.50
2018-10-17T01:38:20.432Z,11.60
2018-10-17T01:40:47.830Z,11.60
2018-10-17T01:43:15.384Z,11.60
2018-10-17T01:45:42.726Z,11.50
2018-10-17T01:48:10.231Z,11.50
2018-10-17T01:50:37.618Z,11.50
2018-10-17T01:53:05.086Z,11.50
2018-10-17T01:55:32.530Z,11.40
2018-10-17T01:57:59.950Z,11.40
2018-10-17T02:00:27.432Z,11.50
2018-10-17T02:02:54.849Z,11.50
2018-10-17T02:05:22.209Z,11.50
2018-10-17T02:07:49.558Z,11.50
2018-10-17T02:10:17.066Z,11.40
2018-10-17T02:12:44.509Z,11.40
2018-10-17T02:15:11.900Z,11.40
2018-10-17T02:17:39.286Z,11.40
2018-10-17T02:20:06.714Z,11.30
2018-10-17T02:22:34.117Z,11.30
2018-10-17T02:25:01.616Z,11.30
2018-10-17T02:27:28.925Z,11.20
2018-10-17T02:29:56.351Z,11.20
2018-10-17T02:32:23.808Z,11.20
2018-10-17T02:34:56.938Z,11.20
2018-10-17T02:39:54.788Z,11.20
2018-10-17T02:42:22.202Z,11.20
2018-10-17T02:44:49.620Z,11.20
2018-10-17T02:47:17.116Z,11.20
2018-10-17T02:49:44.536Z,11.20
2018-10-17T02:52:11.956Z,11.10
2018-10-17T02:54:39.374Z,11.10
2018-10-17T02:57:06.893Z,11.10
2018-10-17T02:59:34.259Z,11.00
2018-10-17T03:02:01.728Z,10.90
2018-10-17T03:04:29.206Z,10.90
2018-10-17T03:06:56.646Z,10.90
2018-10-17T03:09:23.976Z,10.90
2018-10-17T03:11:51.472Z,11.00
2018-10-17T03:14:18.865Z,11.00
2018-10-17T03:16:46.255Z,11.00
2018-10-17T03:19:13.826Z,11.10
2018-10-17T03:21:41.179Z,11.10
2018-10-17T03:24:08.688Z,11.00
2018-10-17T03:26:36.157Z,11.00
2018-10-17T03:29:03.615Z,10.90
2018-10-17T03:31:31.053Z,10.90
2018-10-17T03:33:58.430Z,10.80
2018-10-17T03:36:25.920Z,10.80
2018-10-17T03:38:53.315Z,10.80
2018-10-17T03:41:20.700Z,10.80
2018-10-17T03:43:48.129Z,10.70
2018-10-17T03:46:15.607Z,10.70
2018-10-17T03:48:43.085Z,10.70
2018-10-17T03:51:10.542Z,10.70
2018-10-17T03:53:38.005Z,10.60
2018-10-17T03:56:05.603Z,10.60
2018-10-17T03:58:33.040Z,10.50
2018-10-17T04:01:00.531Z,10.50
2018-10-17T04:03:27.960Z,10.50
2018-10-17T04:05:55.433Z,10.40
2018-10-17T04:08:22.957Z,10.40
2018-10-17T04:10:50.390Z,10.40
2018-10-17T04:13:17.894Z,10.30
2018-10-17T04:15:45.278Z,10.30
2018-10-17T04:18:12.720Z,10.30
2018-10-17T04:20:40.238Z,10.30
2018-10-17T04:23:07.606Z,10.30
2018-10-17T04:25:34.966Z,10.20
2018-10-17T04:28:02.443Z,10.20
2018-10-17T04:30:29.924Z,10.20
2018-10-17T04:32:57.448Z,10.10
2018-10-17T04:35:24.937Z,10.10
2018-10-17T04:37:52.389Z,10.10
2018-10-17T04:40:19.831Z,10.00
2018-10-17T04:42:47.225Z,10.00
2018-10-17T04:45:14.661Z,10.10
2018-10-17T04:47:42.131Z,10.10
2018-10-17T04:50:10.476Z,10.10
2018-10-17T04:52:38.361Z,10.10
2018-10-17T04:55:06.292Z,10.10
2018-10-17T04:57:33.660Z,10.10
2018-10-17T05:00:01.039Z,10.10
2018-10-17T05:02:28.521Z,10.00
2018-10-17T05:04:56.010Z,10.00
2018-10-17T05:07:23.433Z,9.90
2018-10-17T05:09:50.887Z,9.90
2018-10-17T05:12:18.276Z,9.90
2018-10-17T05:14:45.788Z,9.90
2018-10-17T05:17:13.283Z,9.90
2018-10-17T05:19:40.615Z,9.80
2018-10-17T05:22:08.483Z,9.80
2018-10-17T05:24:35.886Z,9.80
2018-10-17T05:27:03.321Z,9.80
2018-10-17T05:29:30.762Z,9.80
2018-10-17T05:31:58.181Z,9.80
2018-10-17T05:34:25.651Z,9.80
2018-10-17T05:36:53.198Z,9.80
2018-10-17T05:39:20.702Z,9.80
2018-10-17T05:41:48.240Z,9.80
2018-10-17T05:44:15.687Z,9.80
2018-10-17T05:46:43.138Z,9.80
2018-10-17T05:49:10.733Z,9.90
2018-10-17T05:51:38.172Z,9.90
2018-10-17T05:54:05.698Z,9.90
2018-10-17T05:56:33.114Z,10.00
2018-10-17T05:59:00.640Z,10.00
2018-10-17T06:01:28.132Z,10.00
2018-10-17T06:03:55.525Z,10.00
2018-10-17T06:06:22.959Z,10.00
2018-10-17T06:08:50.395Z,10.00
2018-10-17T06:11:17.745Z,10.00
2018-10-17T06:13:45.181Z,10.00
2018-10-17T06:16:12.813Z,10.00
2018-10-17T06:18:40.217Z,10.00
2018-10-17T06:21:07.597Z,10.00
2018-10-17T06:23:35.072Z,9.90
2018-10-17T06:26:02.485Z,9.90
2018-10-17T06:28:29.986Z,9.90
2018-10-17T06:30:57.446Z,9.90
2018-10-17T06:33:24.870Z,9.90
2018-10-17T06:35:52.194Z,9.80
2018-10-17T06:38:19.699Z,9.90
2018-10-17T06:40:47.072Z,9.90
2018-10-17T06:43:14.528Z,9.90
2018-10-17T06:45:42.001Z,9.90
2018-10-17T06:48:09.350Z,9.90
2018-10-17T06:50:36.797Z,9.80
2018-10-17T06:53:04.304Z,9.80
2018-10-17T06:55:31.733Z,9.80
2018-10-17T06:57:59.153Z,9.90
2018-10-17T07:00:26.574Z,9.90
2018-10-17T07:02:54.020Z,10.00
2018-10-17T07:05:21.420Z,10.00
2018-10-17T07:07:48.948Z,10.10
2018-10-17T07:10:16.428Z,10.20
2018-10-17T07:12:43.876Z,10.20
2018-10-17T07:15:11.324Z,10.20
2018-10-17T07:17:38.747Z,10.30
2018-10-17T07:20:07.046Z,10.30
2018-10-17T07:22:34.507Z,10.40
2018-10-17T07:25:01.947Z,10.40
2018-10-17T07:27:29.425Z,10.50
2018-10-17T07:29:56.905Z,10.50
2018-10-17T07:32:24.344Z,10.50
2018-10-17T07:34:51.819Z,10.60
2018-10-17T07:37:19.252Z,10.70
2018-10-17T07:39:46.689Z,10.70
2018-10-17T07:42:14.213Z,10.70
2018-10-17T07:44:41.504Z,10.80
2018-10-17T07:47:08.936Z,10.80
2018-10-17T07:49:36.450Z,10.90
2018-10-17T07:52:04.427Z,11.00
2018-10-17T07:54:31.932Z,11.00
2018-10-17T07:56:59.376Z,11.10
2018-10-17T07:59:26.788Z,11.10
2018-10-17T08:01:54.204Z,11.20
2018-10-17T08:04:21.666Z,11.20
2018-10-17T08:06:49.224Z,11.20
2018-10-17T08:09:16.549Z,11.30
2018-10-17T08:11:44.014Z,11.30
2018-10-17T08:14:11.507Z,11.40
2018-10-17T08:16:38.862Z,11.40
2018-10-17T08:19:06.293Z,11.40
2018-10-17T08:21:33.817Z,11.50
2018-10-17T08:24:01.145Z,11.60
2018-10-17T08:26:28.561Z,11.60
2018-10-17T08:28:55.979Z,11.70
2018-10-17T08:31:23.483Z,11.80
2018-10-17T08:33:50.928Z,11.90
2018-10-17T08:36:18.452Z,11.90
2018-10-17T08:38:45.737Z,12.00
2018-10-17T08:41:13.261Z,12.00
2018-10-17T08:43:40.791Z,12.10
2018-10-17T08:46:08.279Z,12.20
2018-10-17T08:48:35.761Z,12.30
2018-10-17T08:51:03.227Z,12.20
2018-10-17T08:53:30.700Z,12.30
2018-10-17T08:55:58.243Z,12.40
2018-10-17T08:58:25.634Z,12.40
2018-10-17T09:00:53.103Z,12.50
2018-10-17T09:03:20.517Z,12.60
2018-10-17T09:05:48.033Z,12.70
2018-10-17T09:08:15.586Z,12.80
2018-10-17T09:10:42.906Z,12.90
2018-10-17T09:13:10.384Z,13.10
2018-10-17T09:15:38.543Z,13.60
2018-10-17T09:18:05.398Z,13.50
2018-10-17T09:20:33.223Z,13.60
2018-10-17T09:23:00.266Z,13.60
2018-10-17T09:25:27.647Z,13.60
2018-10-17T09:27:55.112Z,13.70
2018-10-17T09:30:22.617Z,13.70
2018-10-17T09:32:49.928Z,13.80
2018-10-17T09:35:17.287Z,13.80
2018-10-17T09:37:44.706Z,13.80
2018-10-17T09:40:12.224Z,13.80
2018-10-17T09:42:40.177Z,13.90
2018-10-17T09:45:08.387Z,14.10
2018-10-17T09:47:35.891Z,14.10
2018-10-17T09:50:03.772Z,14.20
2018-10-17T09:52:31.237Z,14.40
2018-10-17T09:54:58.681Z,14.40
2018-10-17T09:57:26.130Z,14.50
2018-10-17T09:59:53.611Z,14.60
2018-10-17T10:02:21.114Z,14.60
2018-10-17T10:04:48.395Z,14.70
2018-10-17T10:07:15.791Z,14.80
2018-10-17T10:09:43.260Z,14.80
2018-10-17T10:12:10.789Z,14.90
2018-10-17T10:14:38.248Z,14.90
2018-10-17T10:17:05.796Z,15.00
2018-10-17T10:19:33.133Z,15.10
2018-10-17T10:22:00.640Z,15.10
2018-10-17T10:24:28.053Z,15.20
2018-10-17T10:26:55.513Z,15.20
2018-10-17T10:29:22.928Z,15.30
2018-10-17T10:31:50.331Z,15.40
2018-10-17T10:34:17.877Z,15.40
2018-10-17T10:36:45.252Z,15.40
2018-10-17T10:39:12.939Z,15.50
2018-10-17T10:41:40.564Z,15.60
2018-10-17T10:44:08.108Z,15.70
2018-10-17T10:46:35.639Z,15.70
2018-10-17T10:49:03.555Z,15.80
2018-10-17T10:51:31.106Z,15.80
2018-10-17T10:53:58.428Z,15.80
2018-10-17T10:56:25.917Z,16.00
2018-10-17T10:58:53.387Z,16.00
2018-10-17T11:01:21.022Z,16.10
2018-10-17T11:03:48.521Z,16.20
2018-10-17T11:06:16.039Z,16.20
2018-10-17T11:08:43.442Z,16.20
2018-10-17T11:11:10.981Z,16.30
2018-10-17T11:13:38.435Z,16.40
2018-10-17T11:16:05.976Z,16.40
2018-10-17T11:18:33.418Z,16.40
2018-10-17T11:21:00.891Z,16.50
2018-10-17T11:23:28.326Z,16.60
2018-10-17T11:25:55.701Z,16.60
2018-10-17T11:28:23.135Z,16.70
2018-10-17T11:30:50.512Z,16.60
2018-10-17T11:33:18.016Z,16.70
2018-10-17T11:35:45.440Z,16.90
2018-10-17T11:38:12.862Z,16.90
2018-10-17T11:40:40.441Z,16.90
2018-10-17T11:43:07.820Z,17.00
2018-10-17T11:45:35.387Z,17.10
2018-10-17T11:48:02.782Z,17.10
2018-10-17T11:50:30.184Z,17.20
2018-10-17T11:52:57.564Z,17.10
2018-10-17T11:55:24.984Z,17.20
2018-10-17T11:57:52.370Z,17.30
2018-10-17T12:00:19.795Z,17.30
2018-10-17T12:02:47.290Z,17.40
2018-10-17T12:05:15.661Z,17.50
2018-10-17T12:07:43.146Z,17.50
2018-10-17T12:10:10.565Z,17.50
2018-10-17T12:12:38.016Z,17.60
2018-10-17T12:15:09.675Z,17.60
2018-10-17T12:17:37.081Z,17.60
2018-10-17T12:20:06.169Z,17.70
2018-10-17T12:22:33.620Z,17.70
2018-10-17T12:25:01.064Z,17.80
2018-10-17T12:27:28.465Z,17.80
2018-10-17T12:29:55.959Z,17.80
2018-10-17T12:32:23.360Z,18.00
2018-10-17T12:34:50.836Z,18.10
2018-10-17T12:37:18.379Z,18.10
2018-10-17T12:39:45.841Z,18.10
2018-10-17T12:42:13.231Z,18.20
2018-10-17T12:44:40.702Z,18.20
2018-10-17T12:47:08.152Z,18.30
2018-10-17T12:49:35.623Z,18.40
2018-10-17T12:52:03.196Z,18.40
2018-10-17T12:54:30.570Z,18.50
2018-10-17T12:56:57.998Z,18.50
2018-10-17T12:59:26.565Z,18.50
2018-10-17T13:01:53.921Z,18.50
2018-10-17T13:04:21.397Z,18.50
2018-10-17T13:06:48.775Z,18.50
2018-10-17T13:09:16.282Z,18.60
2018-10-17T13:11:43.666Z,18.70
2018-10-17T13:14:11.109Z,18.70
2018-10-17T13:16:38.536Z,18.70
2018-10-17T13:19:05.979Z,18.70
2018-10-17T13:21:33.374Z,18.70
2018-10-17T13:24:00.916Z,18.70
2018-10-17T13:26:28.510Z,18.70
2018-10-17T13:28:56.039Z,18.70
2018-10-17T13:31:23.386Z,18.80
2018-10-17T13:33:50.852Z,18.80
2018-10-17T13:36:18.346Z,18.80
2018-10-17T13:38:45.840Z,18.80
2018-10-17T13:41:13.539Z,18.90
2018-10-17T13:43:40.915Z,18.90
2018-10-17T13:46:08.336Z,18.90
2018-10-17T13:48:35.840Z,18.90
2018-10-17T13:51:03.242Z,18.90
2018-10-17T13:53:30.716Z,19.00
2018-10-17T13:55:58.121Z,18.90
2018-10-17T13:58:25.632Z,19.00
2018-10-17T14:00:53.114Z,19.00
2018-10-17T14:03:20.555Z,19.00
2018-10-17T14:05:47.998Z,19.00
2018-10-17T14:08:15.429Z,19.10
2018-10-17T14:10:42.883Z,19.00
2018-10-17T14:13:10.317Z,19.10
2018-10-17T14:15:37.744Z,19.10
2018-10-17T14:18:05.542Z,19.20
2018-10-17T14:20:32.893Z,19.20
2018-10-17T14:23:00.321Z,19.20
2018-10-17T14:25:27.664Z,19.20
2018-10-17T14:27:55.090Z,19.30
2018-10-17T14:30:22.528Z,19.30
2018-10-17T14:32:49.983Z,19.30
2018-10-17T14:35:17.613Z,19.30
2018-10-17T14:37:46.763Z,19.30
2018-10-17T14:40:14.446Z,19.40
2018-10-17T14:42:41.886Z,19.40
2018-10-17T14:45:10.291Z,19.40
2018-10-17T14:47:37.897Z,19.40
2018-10-17T14:50:05.384Z,19.40
2018-10-17T14:52:32.882Z,19.40
2018-10-17T14:55:00.289Z,19.40
2018-10-17T14:57:27.862Z,19.50
2018-10-17T14:59:55.303Z,19.50
2018-10-17T15:02:22.756Z,19.60
2018-10-17T15:04:50.175Z,19.60
2018-10-17T15:07:17.666Z,19.60
2018-10-17T15:09:45.170Z,19.60
2018-10-17T15:12:12.582Z,19.60
2018-10-17T15:14:39.966Z,19.70
2018-10-17T15:17:07.363Z,19.60
2018-10-17T15:19:34.753Z,19.60
2018-10-17T15:22:02.218Z,19.50
2018-10-17T15:24:29.666Z,19.60
2018-10-17T15:26:57.089Z,19.60
2018-10-17T15:29:24.449Z,19.60
2018-10-17T15:31:51.961Z,19.70
2018-10-17T15:34:19.350Z,19.70
2018-10-17T15:36:46.870Z,19.80
2018-10-17T15:39:14.396Z,19.80
2018-10-17T15:41:41.810Z,19.70
2018-10-17T15:44:09.368Z,19.70
2018-10-17T15:46:36.940Z,19.70
2018-10-17T15:49:05.307Z,19.70
2018-10-17T15:51:32.745Z,19.70
2018-10-17T15:54:00.237Z,19.70
2018-10-17T15:56:27.701Z,19.70
2018-10-17T15:58:55.142Z,19.70
2018-10-17T16:01:23.543Z,19.70
2018-10-17T16:03:51.010Z,19.70
2018-10-17T16:06:18.462Z,19.60
2018-10-17T16:08:45.859Z,19.60
2018-10-17T16:11:13.250Z,19.60
2018-10-17T16:13:40.713Z,19.60
2018-10-17T16:16:08.176Z,19.50
2018-10-17T16:18:35.532Z,19.50
2018-10-17T16:21:02.976Z,19.50
2018-10-17T16:23:30.339Z,19.40
2018-10-17T16:25:57.840Z,19.40
2018-10-17T16:28:25.270Z,19.40
2018-10-17T16:30:52.763Z,19.40
2018-10-17T16:33:20.115Z,19.40
2018-10-17T16:35:47.511Z,19.30
2018-10-17T16:38:15.017Z,19.30
2018-10-17T16:40:42.468Z,19.30
2018-10-17T16:43:09.890Z,19.30
2018-10-17T16:45:37.239Z,19.30
2018-10-17T16:48:04.994Z,19.20
2018-10-17T16:50:32.385Z,19.20
2018-10-17T16:52:59.868Z,19.10
2018-10-17T16:55:27.334Z,19.00
2018-10-17T16:57:54.837Z,18.90
2018-10-17T17:00:22.275Z,18.80
2018-10-17T17:02:49.767Z,18.80
2018-10-17T17:05:17.228Z,18.70
2018-10-17T17:07:44.709Z,18.60
2018-10-17T17:10:12.904Z,18.60
2018-10-17T17:12:40.376Z,18.50
2018-10-17T17:15:07.865Z,18.40
2018-10-17T17:17:35.286Z,18.40
2018-10-17T17:20:02.921Z,18.30
2018-10-17T17:22:30.399Z,18.30
2018-10-17T17:24:57.908Z,18.20
2018-10-17T17:27:25.648Z,18.20
2018-10-17T17:29:53.206Z,18.10
2018-10-17T17:32:20.580Z,18.10
2018-10-17T17:34:48.201Z,18.00
2018-10-17T17:37:15.598Z,17.90
2018-10-17T17:39:43.068Z,17.90
2018-10-17T17:42:10.547Z,17.80
2018-10-17T17:44:38.042Z,17.80
2018-10-17T17:47:06.159Z,17.60
2018-10-17T17:49:33.622Z,17.60
2018-10-17T17:52:01.129Z,17.60
2018-10-17T17:54:28.611Z,17.60
2018-10-17T17:56:55.971Z,17.50
2018-10-17T17:59:23.427Z,17.50
2018-10-17T18:01:50.952Z,17.40
2018-10-17T18:04:18.462Z,17.40
2018-10-17T18:06:45.846Z,17.30
2018-10-17T18:09:13.305Z,17.30
2018-10-17T18:11:41.048Z,17.20
2018-10-17T18:14:08.666Z,17.20
2018-10-17T18:16:36.094Z,17.10
2018-10-17T18:19:03.900Z,17.00
2018-10-17T18:21:31.652Z,17.00
2018-10-17T18:23:59.155Z,16.90
2018-10-17T18:26:26.659Z,16.80
2018-10-17T18:28:54.160Z,16.80
2018-10-17T18:31:21.553Z,16.80
2018-10-17T18:33:49.044Z,16.70
2018-10-17T18:36:16.519Z,16.60
2018-10-17T18:38:43.863Z,16.60
2018-10-17T18:41:11.516Z,16.50
2018-10-17T18:43:38.984Z,16.50
2018-10-17T18:46:06.490Z,16.50
2018-10-17T18:48:33.924Z,16.40
2018-10-17T18:51:01.457Z,16.40
2018-10-17T18:53:29.185Z,16.30
2018-10-17T18:55:57.322Z,16.30
2018-10-17T18:58:25.114Z,16.20
2018-10-17T19:00:52.584Z,16.20
2018-10-17T19:03:20.005Z,16.10
2018-10-17T19:05:47.409Z,16.10
2018-10-17T19:08:14.862Z,16.10
2018-10-17T19:10:42.337Z,16.00
2018-10-17T19:13:09.784Z,16.00
2018-10-17T19:15:37.254Z,15.90
2018-10-17T19:18:04.830Z,15.90
2018-10-17T19:20:32.421Z,15.80
2018-10-17T19:22:59.907Z,15.80
2018-10-17T19:25:27.471Z,15.70
2018-10-17T19:27:55.068Z,15.60
2018-10-17T19:30:22.778Z,15.50
2018-10-17T19:32:50.190Z,15.50
2018-10-17T19:35:17.802Z,15.50
2018-10-17T19:37:45.373Z,15.50
2018-10-17T19:40:19.567Z,15.40
2018-10-17T19:42:47.067Z,15.40
2018-10-17T19:45:14.673Z,15.30
2018-10-17T19:47:42.274Z,15.30
2018-10-17T19:50:09.778Z,15.20
2018-10-17T19:52:37.240Z,15.10
2018-10-17T19:55:05.776Z,15.10
2018-10-17T19:57:33.133Z,15.00
2018-10-17T20:00:00.678Z,15.10
2018-10-17T20:02:28.243Z,15.00
2018-10-17T20:04:55.739Z,15.00
2018-10-17T20:07:23.243Z,15.00
2018-10-17T20:09:50.660Z,15.00
2018-10-17T20:12:18.062Z,14.90
2018-10-17T20:14:45.525Z,14.90
2018-10-17T20:17:12.995Z,14.90
2018-10-17T20:19:40.428Z,14.90
2018-10-17T20:22:09.113Z,14.80
2018-10-17T20:24:36.581Z,14.80
2018-10-17T20:27:04.459Z,14.80
2018-10-17T20:29:31.790Z,14.80
2018-10-17T20:31:59.323Z,14.80
2018-10-17T20:34:26.788Z,14.80
2018-10-17T20:36:54.362Z,14.80
2018-10-17T20:39:21.937Z,14.70
2018-10-17T20:41:49.245Z,14.70
2018-10-17T20:44:16.772Z,14.70
2018-10-17T20:46:44.196Z,14.70
2018-10-17T20:49:11.635Z,14.70
2018-10-17T20:51:38.987Z,14.60
2018-10-17T20:54:06.797Z,14.60
2018-10-17T20:56:34.350Z,14.60
2018-10-17T20:59:01.825Z,14.50
2018-10-17T21:01:29.293Z,14.50
2018-10-17T21:03:56.750Z,14.50
2018-10-17T21:06:24.159Z,14.50
2018-10-17T21:08:51.584Z,14.40
2018-10-17T21:11:19.062Z,14.40
2018-10-17T21:13:46.542Z,14.30
2018-10-17T21:16:13.967Z,14.30
2018-10-17T21:18:41.463Z,14.30
2018-10-17T21:21:08.816Z,14.30
2018-10-17T21:23:36.309Z,14.30
2018-10-17T21:26:03.916Z,14.30
2018-10-17T21:28:31.351Z,14.30
2018-10-17T21:30:58.788Z,14.20
2018-10-17T21:33:26.222Z,14.20
2018-10-17T21:35:53.754Z,14.10
2018-10-17T21:38:21.486Z,14.10
2018-10-17T21:40:48.853Z,14.10
2018-10-17T21:43:16.287Z,14.00
2018-10-17T21:45:43.725Z,14.00
2018-10-17T21:48:11.141Z,13.90
2018-10-17T21:50:38.535Z,13.90
2018-10-17T21:53:06.242Z,13.80
2018-10-17T21:55:34.407Z,13.80
2018-10-17T21:58:01.894Z,13.70
2018-10-17T22:00:29.266Z,13.70
2018-10-17T22:02:56.635Z,13.70
2018-10-17T22:05:24.001Z,13.70
2018-10-17T22:07:51.528Z,13.70
2018-10-17T22:10:18.958Z,13.70
2018-10-17T22:12:46.323Z,13.60
2018-10-17T22:15:13.850Z,13.70
2018-10-17T22:17:41.309Z,13.60
2018-10-17T22:20:08.894Z,13.60
2018-10-17T22:22:36.385Z,13.50
2018-10-17T22:25:04.145Z,13.50
2018-10-17T22:27:31.699Z,13.50
2018-10-17T22:29:59.267Z,13.40
2018-10-17T22:34:49.472Z,13.40
2018-10-17T22:37:16.868Z,13.30
2018-10-17T22:39:44.328Z,13.10
2018-10-17T22:42:11.805Z,13.20
2018-10-17T22:44:39.225Z,13.10
2018-10-17T22:47:06.668Z,13.10
2018-10-17T22:49:34.079Z,13.10
2018-10-17T22:52:01.532Z,13.10
2018-10-17T22:54:28.956Z,13.10
2018-10-17T22:56:56.400Z,13.10
2018-10-17T22:59:23.907Z,13.10
2018-10-17T23:01:51.397Z,13.10
2018-10-17T23:04:18.926Z,13.10
2018-10-17T23:06:46.435Z,13.10
2018-10-17T23:09:14.771Z,13.10
2018-10-17T23:11:43.154Z,13.10
2018-10-17T23:14:10.941Z,13.00
2018-10-17T23:16:38.458Z,13.00
2018-10-17T23:19:06.714Z,13.00
2018-10-17T23:21:34.190Z,13.00
2018-10-17T23:24:01.675Z,13.00
2018-10-17T23:26:29.132Z,13.10
2018-10-17T23:28:56.628Z,13.00
2018-10-17T23:31:24.523Z,13.00
2018-10-17T23:33:52.196Z,13.00
2018-10-17T23:36:19.632Z,13.00
2018-10-17T23:38:47.160Z,13.00
2018-10-17T23:41:14.654Z,13.00
2018-10-17T23:43:42.123Z,13.00
2018-10-17T23:46:09.494Z,12.90
2018-10-17T23:48:36.976Z,12.90
2018-10-17T23:51:04.672Z,12.90
2018-10-17T23:53:32.118Z,12.90
2018-10-17T23:55:59.599Z,12.80
2018-10-17T23:58:27.049Z,12.80
